Berveni, Romania

5:38 PM EEST on June 18, 2018 (GMT +0300)
mergo82 | | Change Station

Elev 423 ft 47.96 °N, 22.31 °E | Updated 21 seconds ago

Rain
Rain
78.3 °F
Feels Like 80 °F
N
2.5
Wind Variable Wind from South
Gusts 5.8 mph

Today
High -- | Low -- °F
--% Chance of Precip.
Yesterday
High -- | Low -- °F
Precip. -- in
Pressure 29.92 in
Visibility 6.2 miles
Clouds Scattered Clouds 3600 ft
Scattered Clouds 3800 ft
Heat Index 80 °F
Dew Point 62 °F
Humidity 57%
Rainfall 0.00 in
Snow Depth Not available.
5:31 AM 9:31 PM
Waxing Crescent, 30% visible
METAR LRBM 181330Z 19007KT 9999 VCTS SCT036CB SCT038 23/18 Q1013
Pressure 29.92 in
Visibility 6.2 miles
Clouds Scattered Clouds 3600 ft
Scattered Clouds 3800 ft
Heat Index 80 °F
Dew Point 62 °F
Humidity 57%
Rainfall 0.00 in
Snow Depth Not available.
5:31 AM 9:31 PM
Waxing Crescent, 30% visible
METAR LRBM 181330Z 19007KT 9999 VCTS SCT036CB SCT038 23/18 Q1013

Get Severe Weather Alerts

Thanks for signing up!

Be on the lookout for a verification email in your inbox.

You'll start receiving the daily forecast at 6 AM.

×

10-Day Weather Forecast

×

Almanac

Astronomy

Jun. 18, 2018 Rise Set
Actual Time
Civil Twilight
Nautical Twilight
Astronomical Twilight
Moon
Length of Visible Light
Length of Day
Tomorrow will be .
, % of the Moon is Illuminated

Today's Extremes

Country Highs Country Lows

Community

WunderPhotos

Category 6

Welcome to Category 6. This is the collective home for Weather Underground's featured writeups by Dr. Jeff Masters (right), Bob Henson (left), Chris Burt, and other regular contributors.

Nearby

Air Quality

  Air Quality AQ Index Pollutant
Not available.

Snow Depth

Station Depth Elevation

Earthquake Activity

City Distance Mag. Time & Date
Minimum magnitude displayed is 2.5.

Coastal Water Temperatures

Place Temperature

Stations

Nearby Weather Stations

Station Location Temp. Windchill Dew Point Humidity Wind Precip. Elev Updated Type